Latest Weather Observations for Tewantin

IDQ60901

Issued at 3:21 pm EST Friday 16 November 2018 (issued every 10 minutes, with the page automatically refreshed every 10 minutes)

About weather observations | Map of Brisbane area stations | Latest observations for Brisbane area | Other Formats
Station Details ID: 040908 Name: TEWANTIN RSL PARK Lat: -26.39 Lon: 153.04 Height: 6.4 m
Data from the previous 72 hours. | See also: Recent months at Tewantin
Date/Time
EST
Temp
°C
App
Temp
°C
Dew
Point
°C
Rel
Hum
%
Delta-T
°C
Wind Press
QNH
hPa
Press
MSL
hPa
Rain since
9am
mm
Dir  Spd
km/h
Gust
km/h
Spd
kts
Gust
kts
16/03:00pm 25.7 25.3 17.1 59 5.3 NE 15 22 8 12 1014.3 1014.3 0.0
16/02:30pm 25.9 25.3 16.7 57 5.7 ENE 15 22 8 12 1014.5 1014.5 0.0
16/02:00pm 26.1 25.3 16.1 54 6.1 ENE 15 24 8 13 1014.7 1014.7 0.0
16/01:30pm 26.1 26.1 17.2 58 5.5 NE 13 19 7 10 1015.1 1015.1 0.0
16/01:00pm 26.7 26.7 18.0 59 5.5 NE 15 22 8 12 1015.5 1015.5 0.0
16/12:30pm 26.5 27.1 18.6 62 5.0 ENE 13 19 7 10 1016.0 1016.0 0.0
16/12:00pm 26.8 27.2 18.1 59 5.5 ENE 13 20 7 11 1016.2 1016.2 0.0
16/11:30am 26.6 27.0 18.2 60 5.3 NE 13 20 7 11 1016.6 1016.6 0.0
16/11:00am 26.2 26.6 18.1 61 5.1 NE 13 20 7 11 1017.0 1017.0 0.0
16/10:30am 25.9 26.3 17.3 59 5.4 NE 11 19 6 10 1017.4 1017.4 0.0
16/10:00am 26.7 27.0 16.9 55 6.1 ENE 11 17 6 9 1017.7 1017.7 0.0
16/09:30am 25.7 26.1 16.3 56 5.8 ENE 9 17 5 9 1017.7 1017.7 0.0
16/09:00am 26.8 28.4 19.2 63 4.9 ENE 9 17 5 9 1017.7 1017.7 0.0
16/08:30am 25.0 26.7 18.0 65 4.4 NE 6 9 3 5 1017.7 1017.7 0.0
16/08:00am 24.3 25.7 17.3 65 4.3 E 6 9 3 5 1017.8 1017.8 0.0
16/07:30am 24.3 25.8 17.5 66 4.2 E 6 13 3 7 1017.8 1017.8 0.0
16/07:00am 24.0 26.2 19.7 77 2.8 S 7 11 4 6 1017.7 1017.7 0.0
16/06:30am 22.8 25.3 19.8 83 1.9 S 6 9 3 5 1017.4 1017.4 0.0
16/06:00am 21.2 24.4 19.8 92 0.9 SSW 2 6 1 3 1017.2 1017.2 0.0
16/05:30am 19.9 23.5 19.7 99 0.1 CALM 0 0 0 0 1017.0 1017.0 0.0
16/05:00am 19.4 22.7 19.2 99 0.1 CALM 0 0 0 0 1016.9 1016.9 0.0
16/04:30am 19.6 23.0 19.4 99 0.1 CALM 0 0 0 0 1016.7 1016.7 0.0
16/04:00am 19.5 22.5 19.3 99 0.1 SSW 2 7 1 4 1016.3 1016.3 0.0
16/03:30am 19.5 22.8 19.2 98 0.2 CALM 0 0 0 0 1015.9 1015.9 0.0
16/03:00am 19.6 22.9 19.1 97 0.3 CALM 0 0 0 0 1015.8 1015.8 0.0
16/02:30am 19.9 23.2 19.2 96 0.4 CALM 0 4 0 2 1016.1 1016.1 0.0
16/02:00am 19.9 22.4 19.1 95 0.5 SW 4 9 2 5 1016.4 1016.4 0.0
16/01:30am 20.3 23.8 19.5 95 0.5 CALM 0 0 0 0 1016.5 1016.5 0.0
16/01:00am 20.3 23.8 19.5 95 0.5 CALM 0 0 0 0 1016.9 1016.9 0.0
16/12:30am 20.1 23.4 19.1 94 0.6 CALM 0 0 0 0 1017.0 1017.0 0.0
16/12:00am 20.3 23.3 19.3 94 0.6 SW 2 7 1 4 1017.2 1017.2 0.0
 
Date/Time
EST
Temp
°C
App
Temp
°C
Dew
Point
°C
Rel
Hum
%
Delta-T
°C
Wind Press
QNH
hPa
Press
MSL
hPa
Rain since
9am
mm
Dir  Spd
km/h
Gust
km/h
Spd
kts
Gust
kts
15/11:30pm 20.4 23.7 19.1 92 0.8 CALM 0 0 0 0 1017.2 1017.2 0.0
15/11:00pm 20.7 23.8 19.5 93 0.8 SSW 2 7 1 4 1017.3 1017.3 0.0
15/10:30pm 20.8 23.0 19.1 90 1.1 SW 6 7 3 4 1017.4 1017.4 0.0
15/10:00pm 21.5 24.7 18.9 85 1.6 CALM 0 0 0 0 1017.5 1017.5 0.0
15/09:30pm 21.7 25.0 19.1 85 1.6 CALM 0 0 0 0 1017.7 1017.7 0.0
15/09:00pm 22.2 24.9 19.4 84 1.8 N 4 7 2 4 1017.6 1017.6 0.0
15/08:30pm 22.3 24.8 19.8 86 1.6 NNE 6 7 3 4 1017.4 1017.4 0.0
15/08:00pm 22.3 24.8 19.1 82 2.0 NE 4 7 2 4 1017.4 1017.4 0.0
15/07:30pm 22.7 24.9 19.5 82 2.0 NNE 7 9 4 5 1016.9 1016.9 0.0
15/07:00pm 22.9 24.9 19.1 79 2.4 NNE 7 11 4 6 1016.8 1016.8 0.0
15/06:30pm 23.3 25.2 19.0 77 2.7 NE 7 11 4 6 1016.7 1016.7 0.0
15/06:00pm 23.7 25.6 19.0 75 3.0 NE 7 11 4 6 1016.3 1016.3 0.0
15/05:30pm 24.0 25.5 18.9 73 3.2 NE 9 15 5 8 1015.8 1015.8 0.0
15/05:00pm 24.5 25.2 18.9 71 3.6 ENE 13 20 7 11 1015.6 1015.6 0.0
15/04:30pm 24.7 25.4 18.9 70 3.7 NE 13 17 7 9 1015.6 1015.6 0.0
15/04:00pm 24.9 24.7 18.6 68 4.0 NE 17 22 9 12 1015.8 1015.8 0.0
15/03:30pm 25.4 25.7 17.8 62 4.8 NE 13 20 7 11 1015.8 1015.8 0.0
15/03:00pm 26.0 26.3 17.9 61 5.1 NE 13 20 7 11 1015.9 1015.9 0.0
15/02:30pm 26.0 26.6 18.7 64 4.7 NE 13 22 7 12 1016.0 1016.0 0.0
15/02:00pm 26.0 25.5 17.9 61 5.1 NE 17 24 9 13 1016.2 1016.2 0.0
15/01:30pm 26.5 26.3 18.6 62 5.0 ENE 17 24 9 13 1016.5 1016.5 0.0
15/01:00pm 26.4 26.4 17.2 57 5.7 ENE 13 19 7 10 1016.8 1016.8 0.0
15/12:30pm 26.7 27.0 17.8 58 5.6 ENE 13 20 7 11 1017.2 1017.2 0.0
15/12:00pm 26.3 26.3 17.1 57 5.7 ENE 13 24 7 13 1017.6 1017.6 0.0
15/11:30am 26.4 26.6 17.7 58 5.5 NE 13 20 7 11 1017.9 1017.9 0.0
15/11:00am 26.3 27.1 18.2 61 5.1 NE 11 19 6 10 1018.2 1018.2 0.0
15/10:30am 26.0 26.6 18.7 64 4.7 NE 13 20 7 11 1018.6 1018.6 0.0
15/10:00am 25.9 26.0 18.3 63 4.8 NNE 15 20 8 11 1018.8 1018.8 0.0
15/09:30am 25.7 26.2 17.4 60 5.2 NNE 11 17 6 9 1019.1 1019.1 0.0
15/09:00am 25.5 27.3 18.7 66 4.3 NE 7 13 4 7 1019.1 1019.1 0.0
15/08:30am 24.9 26.0 17.1 62 4.8 NE 7 15 4 8 1019.0 1019.0 0.0
15/08:00am 25.0 26.4 17.7 64 4.6 ENE 7 11 4 6 1018.8 1018.8 0.0
15/07:30am 25.0 27.1 18.9 69 3.9 E 6 9 3 5 1018.7 1018.7 0.0
15/07:00am 24.0 26.2 19.3 75 3.0 S 6 7 3 4 1018.4 1018.4 0.0
15/06:30am 22.6 25.1 19.8 84 1.8 S 6 9 3 5 1018.0 1018.0 0.0
15/06:00am 21.3 24.9 20.5 95 0.5 SSW 2 6 1 3 1017.9 1017.9 0.0
15/05:30am 19.6 22.7 19.6 100 0.0 SSW 2 7 1 4 1017.5 1017.5 0.0
15/05:00am 19.3 22.6 19.1 99 0.1 CALM 0 0 0 0 1017.2 1017.2 0.0
15/04:30am 19.6 21.9 19.4 99 0.1 SSW 6 7 3 4 1016.8 1016.8 0.0
15/04:00am 19.7 23.2 19.5 99 0.1 CALM 0 7 0 4 1016.4 1016.4 0.0
15/03:30am 19.7 22.8 19.4 98 0.2 SSW 2 7 1 4 1016.1 1016.1 0.0
15/03:00am 20.0 23.5 19.5 97 0.3 CALM 0 0 0 0 1016.2 1016.2 0.0
15/02:30am 20.1 23.6 19.6 97 0.3 CALM 0 0 0 0 1016.1 1016.1 0.0
15/02:00am 20.0 22.2 19.2 95 0.5 SSW 6 7 3 4 1016.1 1016.1 0.0
15/01:30am 20.4 23.6 19.7 96 0.4 SSE 2 7 1 4 1016.3 1016.3 0.0
15/01:00am 20.6 23.8 19.8 95 0.5 SSW 2 7 1 4 1016.6 1016.6 0.0
15/12:30am 20.9 23.2 19.4 91 1.0 SW 6 7 3 4 1016.8 1016.8 0.0
15/12:00am 21.5 24.9 19.4 88 1.3 CALM 0 0 0 0 1017.2 1017.2 0.0
 
Date/Time
EST
Temp
°C
App
Temp
°C
Dew
Point
°C
Rel
Hum
%
Delta-T
°C
Wind Press
QNH
hPa
Press
MSL
hPa
Rain since
9am
mm
Dir  Spd
km/h
Gust
km/h
Spd
kts
Gust
kts
14/11:30pm 22.1 25.6 19.5 85 1.7 CALM 0 0 0 0 1017.5 1017.5 0.0
14/11:00pm 21.9 25.0 19.5 86 1.5 WSW 2 6 1 3 1017.9 1017.9 0.0
14/10:30pm 22.2 25.3 19.4 84 1.8 ESE 2 6 1 3 1018.1 1018.1 0.0
14/10:00pm 22.1 24.3 19.3 84 1.8 ENE 6 9 3 5 1018.0 1018.0 0.0
14/09:30pm 22.3 24.5 19.7 85 1.7 ENE 7 9 4 5 1018.2 1018.2 0.0
14/09:00pm 22.3 24.5 19.7 85 1.7 ENE 7 9 4 5 1018.2 1018.2 0.0
14/08:30pm 22.5 24.7 19.1 81 2.2 ENE 6 7 3 4 1018.2 1018.2 0.0
14/08:00pm 22.7 24.7 19.1 80 2.3 ENE 7 13 4 7 1017.8 1017.8 0.0
14/07:30pm 23.0 24.6 19.2 79 2.4 NE 9 13 5 7 1017.8 1017.8 0.0
14/07:00pm 23.1 25.3 19.3 79 2.4 NE 6 9 3 5 1017.7 1017.7 0.0
14/06:30pm 23.2 24.4 18.3 74 3.1 ENE 9 13 5 7 1017.5 1017.5 0.0
14/06:00pm 23.6 24.9 18.5 73 3.2 ENE 9 19 5 10 1017.2 1017.2 0.0
14/05:30pm 24.2 25.8 19.1 73 3.3 ENE 9 17 5 9 1017.2 1017.2 0.0
14/05:00pm 24.1 25.2 18.1 69 3.8 ENE 9 17 5 9 1017.0 1017.0 0.0
14/04:30pm 24.6 25.4 19.0 71 3.6 ENE 13 19 7 10 1016.6 1016.6 0.0
14/04:00pm 24.3 24.6 18.0 68 3.9 NE 13 20 7 11 1016.3 1016.3 0.0
14/03:30pm 25.0 24.8 17.7 64 4.6 ENE 15 24 8 13 1016.5 1016.5 0.0
14/03:00pm 25.0 25.2 17.7 64 4.6 NE 13 24 7 13 1016.4 1016.4 0.0
14/02:30pm 25.6 25.8 16.7 58 5.5 NE 11 20 6 11 1016.4 1016.4 0.0
14/02:00pm 25.3 24.9 16.2 57 5.6 NE 13 22 7 12 1016.5 1016.5 0.0
14/01:30pm 25.7 25.9 18.6 65 4.5 NE 15 24 8 13 1016.7 1016.7 0.0
14/01:00pm 26.0 26.6 18.7 64 4.6 ENE 13 20 7 11 1017.0 1017.0 0.0
14/12:30pm 25.4 25.8 19.1 68 4.0 NE 15 24 8 13 1017.4 1017.4 0.0
14/12:00pm 26.1 25.6 17.7 60 5.3 ENE 17 22 9 12 1017.7 1017.7 0.0
14/11:30am 25.7 25.6 17.9 62 4.9 NE 15 22 8 12 1017.9 1017.9 0.0
14/11:00am 26.2 26.6 18.9 64 4.7 NE 15 20 8 11 1018.2 1018.2 0.0
14/10:30am 24.4 23.9 16.9 63 4.6 ENE 15 22 8 12 1018.4 1018.4 0.0
14/10:00am 25.1 24.9 16.8 60 5.1 NE 13 22 7 12 1018.4 1018.4 0.0
14/09:30am 24.9 24.8 17.9 65 4.4 NE 15 24 8 13 1018.2 1018.2 0.0
14/09:00am 25.3 25.3 18.0 64 4.6 NE 15 24 8 13 1018.1 1018.1 0.0
14/08:30am 25.2 25.9 18.9 68 4.0 NE 13 20 7 11 1018.2 1018.2 0.0
14/08:00am 23.9 25.7 18.3 71 3.5 ESE 6 19 3 10 1018.1 1018.1 0.0
14/07:30am 22.8 23.8 17.7 73 3.2 S 9 11 5 6 1017.9 1017.9 0.0
14/07:00am 22.2 23.2 17.8 76 2.7 S 9 13 5 7 1017.9 1017.9 0.0
14/06:30am 21.5 22.7 18.3 82 2.0 S 9 15 5 8 1017.6 1017.6 0.0
14/06:00am 20.2 21.4 17.4 84 1.7 S 7 11 4 6 1017.2 1017.2 0.0
14/05:30am 19.2 20.7 17.5 90 1.0 SSE 6 7 3 4 1016.9 1016.9 0.0
14/05:00am 18.5 19.7 17.3 93 0.7 S 7 9 4 5 1016.6 1016.6 0.0
14/04:30am 18.6 19.8 17.4 93 0.7 S 7 9 4 5 1016.4 1016.4 0.0
14/04:00am 18.6 20.0 17.3 92 0.8 S 6 7 3 4 1016.2 1016.2 0.0
14/03:30am 18.8 20.0 16.9 89 1.1 SSW 6 7 3 4 1015.9 1015.9 0.0
14/03:00am 19.2 20.5 17.2 88 1.2 SSW 6 11 3 6 1015.9 1015.9 0.0
14/02:30am 19.3 20.5 17.3 88 1.2 SSW 7 11 4 6 1016.0 1016.0 0.0
14/02:00am 19.3 20.5 16.9 86 1.4 SSW 6 9 3 5 1016.1 1016.1 0.0
14/01:30am 19.5 20.7 16.9 85 1.6 SSW 6 11 3 6 1016.4 1016.4 0.0
14/01:00am 19.6 20.3 17.0 85 1.6 SSW 9 13 5 7 1016.6 1016.6 0.0
14/12:30am 19.8 20.4 16.8 83 1.8 SSW 9 13 5 7 1017.1 1017.1 0.0
14/12:00am 19.6 20.1 16.6 83 1.8 SSW 9 13 5 7 1017.4 1017.4 0.0
 
Date/Time
EST
Temp
°C
App
Temp
°C
Dew
Point
°C
Rel
Hum
%
Delta-T
°C
Wind Press
QNH
hPa
Press
MSL
hPa
Rain since
9am
mm
Dir  Spd
km/h
Gust
km/h
Spd
kts
Gust
kts
13/11:30pm 20.0 21.1 17.2 84 1.7 SSW 7 9 4 5 1017.6 1017.6 0.0
13/11:00pm 20.1 20.8 17.1 83 1.8 SSW 9 11 5 6 1018.0 1018.0 0.0
13/10:30pm 20.0 21.1 17.0 83 1.8 SSW 7 9 4 5 1018.1 1018.1 0.0
13/10:00pm 20.1 20.6 16.5 80 2.2 SSW 9 13 5 7 1018.3 1018.3 0.0
13/09:30pm 20.3 21.2 16.7 80 2.2 SSW 7 11 4 6 1018.3 1018.3 0.0
13/09:00pm 20.7 21.3 16.9 79 2.3 S 9 13 5 7 1018.4 1018.4 0.0
13/08:30pm 20.7 21.0 16.1 75 2.8 SSW 9 13 5 7 1018.2 1018.2 0.0
13/08:00pm 21.2 21.9 16.2 73 3.0 S 7 9 4 5 1017.9 1017.9 0.0
13/07:30pm 21.5 21.8 16.0 71 3.3 S 9 13 5 7 1017.9 1017.9 0.0
13/07:00pm 21.9 22.1 15.7 68 3.7 SSE 9 15 5 8 1018.0 1018.0 0.0
13/06:30pm 22.2 22.2 15.1 64 4.2 SSE 9 17 5 9 1017.6 1017.6 0.0
13/06:00pm 22.6 22.3 15.4 64 4.3 SE 11 17 6 9 1017.5 1017.5 0.0
13/05:30pm 23.0 22.4 15.6 63 4.4 SSE 13 20 7 11 1017.4 1017.4 0.0
13/05:00pm 23.1 22.5 15.7 63 4.4 SE 13 22 7 12 1017.1 1017.1 0.0
13/04:30pm 23.3 21.7 15.9 63 4.5 SE 19 30 10 16 1016.7 1016.7 0.0
13/04:00pm 23.8 22.5 14.8 57 5.3 SSE 15 24 8 13 1016.7 1016.7 0.0
13/03:30pm 24.2 23.0 15.1 56 5.4 SSE 15 22 8 12 1016.7 1016.7 0.0

Latest Capital City Observations: Canberra | Sydney | Melbourne | Brisbane | Adelaide | Perth | Hobart | Darwin

Other Formats:

Comma delimited format used in spreadsheet applications
http://www.bom.gov.au/fwo/IDQ60901/IDQ60901.94570.axf

JavaScript Object Notation format (JSON) in row-major order
http://www.bom.gov.au/fwo/IDQ60901/IDQ60901.94570.json